createdAt,value
2019-04-22T00:00:24.000Z,100178
2019-04-22T00:02:09.000Z,100175
2019-04-22T00:03:14.000Z,100178
2019-04-22T00:04:16.000Z,100180
2019-04-22T00:05:21.000Z,100178
2019-04-22T00:07:24.000Z,100178
2019-04-22T00:09:19.000Z,100175
2019-04-22T00:11:24.000Z,100174
2019-04-22T00:13:24.000Z,100168
2019-04-22T00:16:24.000Z,100170
2019-04-22T00:18:24.000Z,100165
2019-04-22T00:19:24.000Z,100167
2019-04-22T00:21:23.000Z,100159
2019-04-22T00:22:24.000Z,100156
2019-04-22T00:24:24.000Z,100162
2019-04-22T00:26:19.000Z,100156
2019-04-22T00:27:20.000Z,100159
2019-04-22T00:28:24.000Z,100156
2019-04-22T00:31:17.000Z,100152
2019-04-22T00:32:18.000Z,100150
2019-04-22T00:33:24.000Z,100153
2019-04-22T00:34:24.000Z,100150
2019-04-22T00:36:24.000Z,100150
2019-04-22T00:38:24.000Z,100149
2019-04-22T00:39:24.000Z,100146
2019-04-22T00:41:24.000Z,100143
2019-04-22T00:43:24.000Z,100146
2019-04-22T00:45:24.000Z,100135
2019-04-22T00:46:24.000Z,100140
2019-04-22T00:49:24.000Z,100137
2019-04-22T00:53:24.000Z,100133
2019-04-22T01:07:18.000Z,100120
2019-04-22T01:08:33.000Z,100126
2019-04-22T01:10:33.000Z,100125
2019-04-22T01:11:33.000Z,100118
2019-04-22T01:13:20.000Z,100121
2019-04-22T01:14:21.000Z,100116
2019-04-22T01:15:23.000Z,100125
2019-04-22T01:17:33.000Z,100118
2019-04-22T01:19:23.000Z,100117
2019-04-22T01:21:33.000Z,100113
2019-04-22T01:25:33.000Z,100105
2019-04-22T01:26:33.000Z,100106
2019-04-22T01:27:33.000Z,100107
2019-04-22T01:29:33.000Z,100097
2019-04-22T01:31:18.000Z,100104
2019-04-22T01:32:30.000Z,100095
2019-04-22T01:34:18.000Z,100088
2019-04-22T01:35:33.000Z,100101
2019-04-22T01:36:33.000Z,100100
2019-04-22T01:38:33.000Z,100091
2019-04-22T01:41:33.000Z,100087
2019-04-22T01:42:33.000Z,100086
2019-04-22T01:43:33.000Z,100089
2019-04-22T01:45:33.000Z,100084
2019-04-22T01:46:33.000Z,100088
2019-04-22T01:48:19.000Z,100086
2019-04-22T01:50:19.000Z,100087
2019-04-22T01:51:33.000Z,100086
2019-04-22T01:53:33.000Z,100087
2019-04-22T01:55:28.000Z,100080
2019-04-22T01:57:18.000Z,100082
2019-04-22T01:58:22.000Z,100078
2019-04-22T01:59:33.000Z,100080
2019-04-22T02:01:33.000Z,100076
2019-04-22T02:02:33.000Z,100080
2019-04-22T02:04:33.000Z,100075
2019-04-22T02:05:33.000Z,100074
2019-04-22T02:06:33.000Z,100078
2019-04-22T02:08:33.000Z,100063
2019-04-22T02:09:34.000Z,100072
2019-04-22T02:11:33.000Z,100068
2019-04-22T02:13:30.000Z,100069
2019-04-22T02:14:33.000Z,100063
2019-04-22T02:27:09.000Z,100047
2019-04-22T02:28:24.000Z,100058
2019-04-22T02:29:24.000Z,100057
2019-04-22T02:33:24.000Z,100050
2019-04-22T02:35:24.000Z,100049
2019-04-22T02:37:24.000Z,100048
2019-04-22T02:40:24.000Z,100043
2019-04-22T02:41:24.000Z,100046
2019-04-22T02:42:25.000Z,100047
2019-04-22T02:57:08.000Z,100026
2019-04-22T02:59:19.000Z,100035
2019-04-22T03:01:05.000Z,100031
2019-04-22T03:02:19.000Z,100029
2019-04-22T03:03:19.000Z,100033
2019-04-22T03:05:19.000Z,100027
2019-04-22T03:07:18.000Z,100028
2019-04-22T03:08:19.000Z,100022
2019-04-22T03:19:19.000Z,100010
2019-04-22T03:23:19.000Z,100010
2019-04-22T03:25:06.000Z,100007
2019-04-22T03:37:04.000Z,100000
2019-04-22T03:38:24.000Z,99995
2019-04-22T03:42:24.000Z,99996
2019-04-22T03:44:16.000Z,99998
2019-04-22T03:45:22.000Z,100000
2019-04-22T03:47:24.000Z,99990
2019-04-22T03:48:24.000Z,99993
2019-04-22T03:57:10.000Z,99992
2019-04-22T03:58:21.000Z,99994
2019-04-22T03:59:26.000Z,99983
2019-04-22T04:00:26.000Z,99987
2019-04-22T04:01:26.000Z,99984
2019-04-22T04:03:25.000Z,99981
2019-04-22T04:05:26.000Z,99982
2019-04-22T04:06:26.000Z,99982
2019-04-22T04:07:27.000Z,99981
2019-04-22T04:17:08.000Z,99972
2019-04-22T04:20:23.000Z,99975
2019-04-22T04:22:09.000Z,99977
2019-04-22T04:25:23.000Z,99972
2019-04-22T04:27:23.000Z,99973
2019-04-22T04:40:22.000Z,99957
2019-04-22T04:42:22.000Z,99967
2019-04-22T04:43:22.000Z,99965
2019-04-22T04:45:22.000Z,99971
2019-04-22T04:46:38.000Z,99974
2019-04-22T04:48:13.000Z,99970
2019-04-22T04:57:08.000Z,99962
2019-04-22T04:58:23.000Z,99972
2019-04-22T05:02:23.000Z,99969
2019-04-22T05:04:23.000Z,99963
2019-04-22T05:06:23.000Z,99969
2019-04-22T05:18:22.000Z,99962
2019-04-22T05:20:22.000Z,99961
2019-04-22T05:22:22.000Z,99959
2019-04-22T05:25:22.000Z,99962
2019-04-22T05:27:07.000Z,99961
2019-04-22T05:28:09.000Z,99959
2019-04-22T05:29:22.000Z,99958
2019-04-22T05:32:22.000Z,99956
2019-04-22T05:34:22.000Z,99948
2019-04-22T05:36:12.000Z,99954
2019-04-22T05:37:20.000Z,99947
2019-04-22T05:39:11.000Z,99952
2019-04-22T05:40:21.000Z,99947
2019-04-22T05:41:23.000Z,99947
2019-04-22T05:43:13.000Z,99945
2019-04-22T05:45:22.000Z,99944
2019-04-22T05:46:23.000Z,99947
2019-04-22T05:48:22.000Z,99949
2019-04-22T05:57:08.000Z,99928
2019-04-22T05:58:11.000Z,99940
2019-04-22T05:59:23.000Z,99940
2019-04-22T06:00:23.000Z,99939
2019-04-22T06:02:23.000Z,99938
2019-04-22T06:05:23.000Z,99932
2019-04-22T06:07:23.000Z,99940
2019-04-22T06:09:23.000Z,99936
2019-04-22T06:11:22.000Z,99941
2019-04-22T06:13:22.000Z,99935
2019-04-22T06:15:17.000Z,99937
2019-04-22T06:16:22.000Z,99937
2019-04-22T06:19:13.000Z,99940
2019-04-22T06:21:10.000Z,99935
2019-04-22T06:22:17.000Z,99936
2019-04-22T06:23:17.000Z,99936
2019-04-22T06:37:10.000Z,99945
2019-04-22T06:38:19.000Z,99948
2019-04-22T06:40:09.000Z,99940
2019-04-22T06:41:19.000Z,99943
2019-04-22T06:44:16.000Z,99941
2019-04-22T06:45:18.000Z,99943
2019-04-22T06:46:19.000Z,99942
2019-04-22T06:48:12.000Z,99941
2019-04-22T06:50:16.000Z,99944
2019-04-22T06:51:33.000Z,99949
2019-04-22T06:54:19.000Z,99940
2019-04-22T06:56:12.000Z,99940
2019-04-22T06:57:13.000Z,99935
2019-04-22T06:59:19.000Z,99940
2019-04-22T07:01:18.000Z,99937
2019-04-22T07:08:33.000Z,99941
2019-04-22T07:11:33.000Z,99927
2019-04-22T07:12:33.000Z,99941
2019-04-22T07:14:32.000Z,99940
2019-04-22T07:15:33.000Z,99937
2019-04-22T07:17:23.000Z,99939
2019-04-22T07:18:33.000Z,99938
2019-04-22T07:19:33.000Z,99941
2019-04-22T07:21:32.000Z,99935
2019-04-22T07:22:33.000Z,99932
2019-04-22T07:24:33.000Z,99936
2019-04-22T07:25:33.000Z,99939
2019-04-22T07:27:33.000Z,99930
2019-04-22T07:37:08.000Z,99923
2019-04-22T07:38:18.000Z,99923
2019-04-22T07:39:18.000Z,99923
2019-04-22T07:41:11.000Z,99926
2019-04-22T07:42:16.000Z,99925
2019-04-22T07:43:18.000Z,99919
2019-04-22T07:45:18.000Z,99920
2019-04-22T07:49:18.000Z,99909
2019-04-22T07:50:18.000Z,99918
2019-04-22T07:54:12.000Z,99912
2019-04-22T07:55:12.000Z,99918
2019-04-22T07:57:18.000Z,99918
2019-04-22T07:59:06.000Z,99913
2019-04-22T08:00:15.000Z,99911
2019-04-22T08:03:11.000Z,99911
2019-04-22T08:04:18.000Z,99908
2019-04-22T08:07:18.000Z,99912
2019-04-22T08:08:19.000Z,99907
2019-04-22T08:17:08.000Z,99896
2019-04-22T08:18:23.000Z,99904
2019-04-22T08:21:23.000Z,99908
2019-04-22T08:24:17.000Z,99903
2019-04-22T08:26:18.000Z,99899
2019-04-22T08:28:21.000Z,99897
2019-04-22T08:29:23.000Z,99903
2019-04-22T08:31:23.000Z,99904
2019-04-22T08:32:23.000Z,99902
2019-04-22T08:34:23.000Z,99897
2019-04-22T08:37:23.000Z,99894
2019-04-22T08:47:07.000Z,99884
2019-04-22T08:48:12.000Z,99887
2019-04-22T08:50:17.000Z,99890
2019-04-22T08:51:19.000Z,99886
2019-04-22T08:55:10.000Z,99880
2019-04-22T08:56:18.000Z,99878
2019-04-22T08:58:19.000Z,99875
2019-04-22T09:00:18.000Z,99871
2019-04-22T09:02:19.000Z,99871
2019-04-22T09:04:19.000Z,99866
2019-04-22T09:05:19.000Z,99870
2019-04-22T09:17:09.000Z,99847
2019-04-22T09:19:18.000Z,99853
2019-04-22T09:21:24.000Z,99848
2019-04-22T09:22:24.000Z,99847
2019-04-22T09:24:23.000Z,99848
2019-04-22T09:25:24.000Z,99848
2019-04-22T09:28:10.000Z,99838
2019-04-22T09:29:24.000Z,99846
2019-04-22T09:37:08.000Z,99837
2019-04-22T09:38:19.000Z,99841
2019-04-22T09:39:19.000Z,99836
2019-04-22T09:41:06.000Z,99830
2019-04-22T09:42:11.000Z,99834
2019-04-22T09:43:17.000Z,99833
2019-04-22T09:44:19.000Z,99828
2019-04-22T09:46:19.000Z,99822
2019-04-22T09:48:19.000Z,99821
2019-04-22T09:49:19.000Z,99821
2019-04-22T09:51:20.000Z,99819
2019-04-22T09:52:21.000Z,99804
2019-04-22T09:54:19.000Z,99804
2019-04-22T09:56:18.000Z,99808
2019-04-22T09:57:21.000Z,99795
2019-04-22T09:59:20.000Z,99785
2019-04-22T10:07:08.000Z,99789
2019-04-22T10:08:22.000Z,99792
2019-04-22T10:10:24.000Z,99784
2019-04-22T10:12:24.000Z,99775
2019-04-22T10:14:17.000Z,99774
2019-04-22T10:16:20.000Z,99768
2019-04-22T10:18:19.000Z,99765
2019-04-22T10:19:24.000Z,99762
2019-04-22T10:21:24.000Z,99754
2019-04-22T10:23:20.000Z,99766
2019-04-22T10:24:24.000Z,99763
2019-04-22T10:25:24.000Z,99766
2019-04-22T10:27:21.000Z,99756
2019-04-22T10:28:40.000Z,99761
2019-04-22T10:37:08.000Z,99730
2019-04-22T10:38:24.000Z,99735
2019-04-22T10:39:24.000Z,99733
2019-04-22T10:41:24.000Z,99736
2019-04-22T10:43:08.000Z,99735
2019-04-22T10:44:38.000Z,99727
2019-04-22T10:46:08.000Z,99722
2019-04-22T10:47:24.000Z,99723
2019-04-22T10:48:24.000Z,99728
2019-04-22T10:49:24.000Z,99718
2019-04-22T10:51:09.000Z,99715
2019-04-22T10:52:23.000Z,99708
2019-04-22T10:54:08.000Z,99713
2019-04-22T10:56:23.000Z,99705
2019-04-22T10:58:07.000Z,99701
2019-04-22T10:59:23.000Z,99703
2019-04-22T11:01:08.000Z,99685
2019-04-22T11:03:23.000Z,99695
2019-04-22T11:05:08.000Z,99701
2019-04-22T11:06:23.000Z,99696
2019-04-22T11:08:14.000Z,99687
2019-04-22T11:10:08.000Z,99691
2019-04-22T11:11:22.000Z,99687
2019-04-22T11:13:25.000Z,99686
2019-04-22T11:15:08.000Z,99685
2019-04-22T11:17:38.000Z,99682
2019-04-22T11:19:08.000Z,99681
2019-04-22T11:21:23.000Z,99681
2019-04-22T11:23:23.000Z,99673
2019-04-22T11:25:08.000Z,99668
2019-04-22T11:26:24.000Z,99667
2019-04-22T11:28:09.000Z,99652
2019-04-22T11:29:09.000Z,99650
2019-04-22T11:30:23.000Z,99659
2019-04-22T11:32:08.000Z,99639
2019-04-22T11:33:23.000Z,99645
2019-04-22T11:35:08.000Z,99649
2019-04-22T11:36:24.000Z,99643
2019-04-22T11:38:23.000Z,99641
2019-04-22T11:40:08.000Z,99633
2019-04-22T11:41:23.000Z,99633
2019-04-22T11:42:24.000Z,99622
2019-04-22T11:43:25.000Z,99624
2019-04-22T11:45:24.000Z,99626
2019-04-22T11:47:25.000Z,99621
2019-04-22T11:49:09.000Z,99623
2019-04-22T11:50:25.000Z,99620
2019-04-22T11:52:13.000Z,99615
2019-04-22T11:54:25.000Z,99617
2019-04-22T11:56:08.000Z,99602
2019-04-22T11:57:24.000Z,99600
2019-04-22T11:59:24.000Z,99609
2019-04-22T12:00:24.000Z,99612
2019-04-22T12:02:24.000Z,99579
2019-04-22T12:04:09.000Z,99594
2019-04-22T12:06:25.000Z,99599
2019-04-22T12:07:39.000Z,99596
2019-04-22T12:09:09.000Z,99596
2019-04-22T12:10:22.000Z,99596
2019-04-22T12:12:09.000Z,99592
2019-04-22T12:14:25.000Z,99589
2019-04-22T12:15:25.000Z,99589
2019-04-22T12:17:24.000Z,99577
2019-04-22T12:19:24.000Z,99586
2019-04-22T12:21:08.000Z,99588
2019-04-22T12:22:24.000Z,99588
2019-04-22T12:24:09.000Z,99582
2019-04-22T12:25:10.000Z,99588
2019-04-22T12:26:14.000Z,99589
2019-04-22T12:28:39.000Z,99583
2019-04-22T12:30:09.000Z,99569
2019-04-22T12:31:09.000Z,99582
2019-04-22T12:33:12.000Z,99561
2019-04-22T12:34:24.000Z,99570
2019-04-22T12:36:09.000Z,99567
2019-04-22T12:37:24.000Z,99564
2019-04-22T12:39:09.000Z,99545
2019-04-22T12:40:10.000Z,99538
2019-04-22T12:42:39.000Z,99539
2019-04-22T12:44:24.000Z,99543
2019-04-22T12:45:25.000Z,99535
2019-04-22T12:47:11.000Z,99531
2019-04-22T12:49:09.000Z,99531
2019-04-22T12:50:20.000Z,99521
2019-04-22T12:52:08.000Z,99518
2019-04-22T12:53:14.000Z,99515
2019-04-22T12:54:23.000Z,99515
2019-04-22T12:56:08.000Z,99512
2019-04-22T12:57:08.000Z,99516
2019-04-22T12:58:24.000Z,99506
2019-04-22T12:59:24.000Z,99513
2019-04-22T13:01:23.000Z,99513
2019-04-22T13:02:23.000Z,99519
2019-04-22T13:04:12.000Z,99514
2019-04-22T13:06:08.000Z,99512
2019-04-22T13:07:38.000Z,99508
2019-04-22T13:09:08.000Z,99505
2019-04-22T13:11:15.000Z,99499
2019-04-22T13:12:23.000Z,99504
2019-04-22T13:14:08.000Z,99502
2019-04-22T13:15:24.000Z,99497
2019-04-22T13:17:10.000Z,99500
2019-04-22T13:18:19.000Z,99488
2019-04-22T13:20:14.000Z,99485
2019-04-22T13:21:23.000Z,99494
2019-04-22T13:23:08.000Z,99486
2019-04-22T13:24:23.000Z,99490
2019-04-22T13:26:25.000Z,99486
2019-04-22T13:28:09.000Z,99481
2019-04-22T13:29:25.000Z,99473
2019-04-22T13:31:08.000Z,99480
2019-04-22T13:33:25.000Z,99475
2019-04-22T13:35:08.000Z,99474
2019-04-22T13:36:24.000Z,99483
2019-04-22T13:37:25.000Z,99462
2019-04-22T13:39:23.000Z,99480
2019-04-22T13:40:23.000Z,99480
2019-04-22T13:42:13.000Z,99481
2019-04-22T13:44:23.000Z,99483
2019-04-22T13:45:24.000Z,99478
2019-04-22T13:47:22.000Z,99473
2019-04-22T13:51:23.000Z,99470
2019-04-22T13:53:23.000Z,99464
2019-04-22T13:54:23.000Z,99463
2019-04-22T13:56:23.000Z,99463
2019-04-22T13:58:12.000Z,99465
2019-04-22T14:00:10.000Z,99451
2019-04-22T14:02:08.000Z,99461
2019-04-22T14:03:23.000Z,99459
2019-04-22T14:05:08.000Z,99465
2019-04-22T14:06:23.000Z,99455
2019-04-22T14:08:11.000Z,99462
2019-04-22T14:10:23.000Z,99464
2019-04-22T14:12:08.000Z,99463
2019-04-22T14:13:24.000Z,99463
2019-04-22T14:15:08.000Z,99445
2019-04-22T14:16:08.000Z,99452
2019-04-22T14:17:23.000Z,99446
2019-04-22T14:18:25.000Z,99447
2019-04-22T14:20:23.000Z,99443
2019-04-22T14:22:08.000Z,99444
2019-04-22T14:23:11.000Z,99436
2019-04-22T14:25:25.000Z,99433
2019-04-22T14:27:23.000Z,99433
2019-04-22T14:29:38.000Z,99432
2019-04-22T14:31:08.000Z,99434
2019-04-22T14:32:16.000Z,99429
2019-04-22T14:34:08.000Z,99417
2019-04-22T14:35:23.000Z,99424
2019-04-22T14:36:24.000Z,99424
2019-04-22T14:37:24.000Z,99416
2019-04-22T14:39:25.000Z,99418
2019-04-22T14:41:15.000Z,99409
2019-04-22T14:42:23.000Z,99410
2019-04-22T14:44:23.000Z,99396
2019-04-22T14:45:23.000Z,99398
2019-04-22T14:46:23.000Z,99400
2019-04-22T14:48:15.000Z,99406
2019-04-22T14:50:23.000Z,99401
2019-04-22T14:52:23.000Z,99405
2019-04-22T14:53:23.000Z,99403
2019-04-22T14:55:18.000Z,99398
2019-04-22T14:57:08.000Z,99399
2019-04-22T14:58:09.000Z,99398
2019-04-22T15:00:24.000Z,99397
2019-04-22T15:01:25.000Z,99394
2019-04-22T15:03:08.000Z,99378
2019-04-22T15:04:38.000Z,99379
2019-04-22T15:06:10.000Z,99392
2019-04-22T15:08:23.000Z,99387
2019-04-22T15:10:08.000Z,99378
2019-04-22T15:11:38.000Z,99381
2019-04-22T15:13:08.000Z,99365
2019-04-22T15:14:08.000Z,99373
2019-04-22T15:16:24.000Z,99378
2019-04-22T15:18:24.000Z,99371
2019-04-22T15:20:08.000Z,99359
2019-04-22T15:21:09.000Z,99366
2019-04-22T15:22:25.000Z,99366
2019-04-22T15:23:25.000Z,99363
2019-04-22T15:25:25.000Z,99351
2019-04-22T15:26:25.000Z,99356
2019-04-22T15:28:08.000Z,99364
2019-04-22T15:29:23.000Z,99362
2019-04-22T15:31:08.000Z,99353
2019-04-22T15:32:08.000Z,99362
2019-04-22T15:33:08.000Z,99354
2019-04-22T15:34:25.000Z,99340
2019-04-22T15:36:24.000Z,99337
2019-04-22T15:38:23.000Z,99348
2019-04-22T15:40:23.000Z,99349
2019-04-22T15:42:08.000Z,99336
2019-04-22T15:43:23.000Z,99348
2019-04-22T15:45:13.000Z,99351
2019-04-22T15:47:23.000Z,99348
2019-04-22T15:49:09.000Z,99353
2019-04-22T15:51:08.000Z,99348
2019-04-22T15:52:08.000Z,99344
2019-04-22T15:53:09.000Z,99332
2019-04-22T15:55:09.000Z,99347
2019-04-22T15:56:25.000Z,99348
2019-04-22T15:58:09.000Z,99342
2019-04-22T15:59:23.000Z,99343
2019-04-22T16:00:36.000Z,99342
2019-04-22T16:02:08.000Z,99336
2019-04-22T16:03:12.000Z,99335
2019-04-22T16:05:08.000Z,99343
2019-04-22T16:06:25.000Z,99341
2019-04-22T16:07:25.000Z,99338
2019-04-22T16:09:24.000Z,99338
2019-04-22T16:11:09.000Z,99345
2019-04-22T16:12:19.000Z,99339
2019-04-22T16:14:10.000Z,99337
2019-04-22T16:15:11.000Z,99330
2019-04-22T16:17:25.000Z,99336
2019-04-22T16:19:24.000Z,99336
2019-04-22T16:21:24.000Z,99333
2019-04-22T16:23:09.000Z,99329
2019-04-22T16:24:24.000Z,99335
2019-04-22T16:26:08.000Z,99338
2019-04-22T16:27:24.000Z,99335
2019-04-22T16:28:24.000Z,99325
2019-04-22T16:30:24.000Z,99335
2019-04-22T16:32:09.000Z,99335
2019-04-22T16:33:09.000Z,99338
2019-04-22T16:34:09.000Z,99331
2019-04-22T16:35:25.000Z,99330
2019-04-22T16:37:09.000Z,99322
2019-04-22T16:38:24.000Z,99325
2019-04-22T16:40:24.000Z,99324
2019-04-22T16:42:24.000Z,99329
2019-04-22T16:44:24.000Z,99327
2019-04-22T16:46:09.000Z,99319
2019-04-22T16:47:25.000Z,99320
2019-04-22T16:49:09.000Z,99328
2019-04-22T16:50:25.000Z,99322
2019-04-22T16:52:25.000Z,99322
2019-04-22T16:53:25.000Z,99318
2019-04-22T16:55:10.000Z,99318
2019-04-22T16:56:24.000Z,99314
2019-04-22T16:58:09.000Z,99318
2019-04-22T16:59:24.000Z,99310
2019-04-22T17:01:09.000Z,99315
2019-04-22T17:03:24.000Z,99311
2019-04-22T17:05:09.000Z,99311
2019-04-22T17:07:24.000Z,99315
2019-04-22T17:09:24.000Z,99310
2019-04-22T17:11:10.000Z,99309
2019-04-22T17:12:25.000Z,99313
2019-04-22T17:14:23.000Z,99310
2019-04-22T17:16:08.000Z,99308
2019-04-22T17:17:24.000Z,99315
2019-04-22T17:19:38.000Z,99315
2019-04-22T17:21:08.000Z,99312
2019-04-22T17:22:23.000Z,99315
2019-04-22T17:24:24.000Z,99317
2019-04-22T17:26:09.000Z,99317
2019-04-22T17:28:24.000Z,99316
2019-04-22T17:29:24.000Z,99313
2019-04-22T17:30:25.000Z,99321
2019-04-22T17:32:15.000Z,99311
2019-04-22T17:33:25.000Z,99311
2019-04-22T17:35:08.000Z,99303
2019-04-22T17:36:24.000Z,99315
2019-04-22T17:38:22.000Z,99308
2019-04-22T17:39:23.000Z,99314
2019-04-22T17:40:23.000Z,99303
2019-04-22T17:42:23.000Z,99305
2019-04-22T17:43:23.000Z,99308
2019-04-22T17:45:23.000Z,99317
2019-04-22T17:47:23.000Z,99323
2019-04-22T17:49:23.000Z,99321
2019-04-22T17:50:23.000Z,99310
2019-04-22T17:52:23.000Z,99318
2019-04-22T17:53:23.000Z,99312
2019-04-22T17:54:23.000Z,99319
2019-04-22T17:56:23.000Z,99314
2019-04-22T18:00:23.000Z,99317
2019-04-22T18:01:23.000Z,99310
2019-04-22T18:02:23.000Z,99310
2019-04-22T18:04:11.000Z,99314
2019-04-22T18:05:12.000Z,99318
2019-04-22T18:08:23.000Z,99312
2019-04-22T18:10:23.000Z,99313
2019-04-22T18:11:23.000Z,99316
2019-04-22T18:13:23.000Z,99320
2019-04-22T18:14:23.000Z,99320
2019-04-22T18:16:14.000Z,99312
2019-04-22T18:17:23.000Z,99317
2019-04-22T18:19:11.000Z,99327
2019-04-22T18:21:23.000Z,99324
2019-04-22T18:22:24.000Z,99326
2019-04-22T18:24:09.000Z,99332
2019-04-22T18:25:24.000Z,99334
2019-04-22T18:27:23.000Z,99323
2019-04-22T18:28:24.000Z,99325
2019-04-22T18:30:37.000Z,99337
2019-04-22T18:32:22.000Z,99336
2019-04-22T18:34:23.000Z,99333
2019-04-22T18:35:24.000Z,99335
2019-04-22T18:37:23.000Z,99339
2019-04-22T18:38:23.000Z,99338
2019-04-22T18:40:23.000Z,99339
2019-04-22T18:42:23.000Z,99347
2019-04-22T18:44:23.000Z,99345
2019-04-22T18:45:24.000Z,99341
2019-04-22T18:47:14.000Z,99342
2019-04-22T18:48:24.000Z,99345
2019-04-22T18:50:23.000Z,99348
2019-04-22T18:52:23.000Z,99351
2019-04-22T18:54:23.000Z,99346
2019-04-22T18:55:23.000Z,99347
2019-04-22T18:57:23.000Z,99351
2019-04-22T18:58:24.000Z,99353
2019-04-22T19:00:09.000Z,99350
2019-04-22T19:01:25.000Z,99344
2019-04-22T19:03:08.000Z,99355
2019-04-22T19:04:09.000Z,99350
2019-04-22T19:06:24.000Z,99352
2019-04-22T19:08:23.000Z,99359
2019-04-22T19:09:23.000Z,99354
2019-04-22T19:11:22.000Z,99353
2019-04-22T19:12:23.000Z,99357
2019-04-22T19:14:24.000Z,99352
2019-04-22T19:16:19.000Z,99357
2019-04-22T19:18:18.000Z,99345
2019-04-22T19:19:23.000Z,99362
2019-04-22T19:21:13.000Z,99355
2019-04-22T19:25:11.000Z,99361
2019-04-22T19:26:20.000Z,99361
2019-04-22T19:30:23.000Z,99365
2019-04-22T19:32:23.000Z,99363
2019-04-22T19:34:23.000Z,99367
2019-04-22T19:36:23.000Z,99368
2019-04-22T19:38:23.000Z,99368
2019-04-22T19:39:23.000Z,99366
2019-04-22T19:41:23.000Z,99370
2019-04-22T19:42:23.000Z,99366
2019-04-22T19:44:23.000Z,99366
2019-04-22T19:46:23.000Z,99366
2019-04-22T19:48:23.000Z,99372
2019-04-22T19:49:23.000Z,99366
2019-04-22T19:51:23.000Z,99376
2019-04-22T19:53:17.000Z,99374
2019-04-22T19:55:23.000Z,99373
2019-04-22T19:56:23.000Z,99371
2019-04-22T19:58:23.000Z,99373
2019-04-22T20:00:08.000Z,99373
2019-04-22T20:01:23.000Z,99374
2019-04-22T20:02:23.000Z,99371
2019-04-22T20:04:23.000Z,99369
2019-04-22T20:06:23.000Z,99361
2019-04-22T20:08:23.000Z,99367
2019-04-22T20:10:23.000Z,99371
2019-04-22T20:11:23.000Z,99370
2019-04-22T20:13:23.000Z,99367
2019-04-22T20:14:23.000Z,99358
2019-04-22T20:17:23.000Z,99370
2019-04-22T20:19:23.000Z,99367
2019-04-22T20:21:23.000Z,99367
2019-04-22T20:23:22.000Z,99367
2019-04-22T20:26:23.000Z,99365
2019-04-22T20:28:23.000Z,99365
2019-04-22T20:30:23.000Z,99363
2019-04-22T20:32:10.000Z,99357
2019-04-22T20:33:23.000Z,99359
2019-04-22T20:35:23.000Z,99367
2019-04-22T20:36:23.000Z,99358
2019-04-22T20:38:23.000Z,99352
2019-04-22T20:40:23.000Z,99352
2019-04-22T20:42:23.000Z,99355
2019-04-22T20:43:23.000Z,99351
2019-04-22T20:44:23.000Z,99352
2019-04-22T20:47:10.000Z,99348
2019-04-22T20:50:26.000Z,99345
2019-04-22T20:51:26.000Z,99344
2019-04-22T20:53:26.000Z,99347
2019-04-22T20:55:25.000Z,99345
2019-04-22T20:57:26.000Z,99354
2019-04-22T20:59:26.000Z,99353
2019-04-22T21:00:26.000Z,99352
2019-04-22T21:01:26.000Z,99353
2019-04-22T21:03:24.000Z,99349
2019-04-22T21:04:26.000Z,99352
2019-04-22T21:05:26.000Z,99352
2019-04-22T21:06:26.000Z,99350
2019-04-22T21:08:25.000Z,99354
2019-04-22T21:09:26.000Z,99354
2019-04-22T21:11:26.000Z,99357
2019-04-22T21:13:23.000Z,99351
2019-04-22T21:15:26.000Z,99357
2019-04-22T21:17:25.000Z,99358
2019-04-22T21:18:26.000Z,99352
2019-04-22T21:19:26.000Z,99354
2019-04-22T21:21:26.000Z,99348
2019-04-22T21:23:26.000Z,99353
2019-04-22T21:25:23.000Z,99338
2019-04-22T21:27:26.000Z,99346
2019-04-22T21:29:25.000Z,99345
2019-04-22T21:31:26.000Z,99341
2019-04-22T21:33:26.000Z,99352
2019-04-22T21:34:26.000Z,99338
2019-04-22T21:36:24.000Z,99342
2019-04-22T21:37:41.000Z,99336
2019-04-22T21:39:26.000Z,99328
2019-04-22T21:41:26.000Z,99327
2019-04-22T21:42:26.000Z,99322
2019-04-22T21:44:26.000Z,99318
2019-04-22T21:45:26.000Z,99322
2019-04-22T21:47:26.000Z,99304
2019-04-22T21:50:26.000Z,99309
2019-04-22T21:52:21.000Z,99314
2019-04-22T21:54:26.000Z,99305
2019-04-22T21:56:26.000Z,99306
2019-04-22T21:58:16.000Z,99310
2019-04-22T21:59:20.000Z,99308
2019-04-22T22:00:26.000Z,99312
2019-04-22T22:02:26.000Z,99309
2019-04-22T22:03:26.000Z,99311
2019-04-22T22:05:26.000Z,99314
2019-04-22T22:06:26.000Z,99308
2019-04-22T22:08:11.000Z,99306
2019-04-22T22:09:25.000Z,99308
2019-04-22T22:11:26.000Z,99304
2019-04-22T22:12:26.000Z,99260
2019-04-22T22:14:26.000Z,99301
2019-04-22T22:15:26.000Z,99307
2019-04-22T22:17:26.000Z,99297
2019-04-22T22:18:26.000Z,99297
2019-04-22T22:20:26.000Z,99300
2019-04-22T22:22:26.000Z,99299
2019-04-22T22:23:26.000Z,99294
2019-04-22T22:25:14.000Z,99290
2019-04-22T22:29:26.000Z,99291
2019-04-22T22:32:26.000Z,99292
2019-04-22T22:34:13.000Z,99286
2019-04-22T22:36:26.000Z,99281
2019-04-22T22:38:11.000Z,99282
2019-04-22T22:39:24.000Z,99281
2019-04-22T22:41:11.000Z,99279
2019-04-22T22:43:25.000Z,99275
2019-04-22T22:45:11.000Z,99280
2019-04-22T22:46:26.000Z,99273
2019-04-22T22:48:26.000Z,99268
2019-04-22T22:49:26.000Z,99267
2019-04-22T22:51:26.000Z,99258
2019-04-22T22:55:16.000Z,99253
2019-04-22T22:56:26.000Z,99250
2019-04-22T22:58:14.000Z,99251
2019-04-22T22:59:26.000Z,99253
2019-04-22T23:01:11.000Z,99259
2019-04-22T23:04:26.000Z,99255
2019-04-22T23:06:26.000Z,99250
2019-04-22T23:07:26.000Z,99248
2019-04-22T23:09:13.000Z,99241
2019-04-22T23:10:26.000Z,99244
2019-04-22T23:13:26.000Z,99241
2019-04-22T23:15:26.000Z,99241
2019-04-22T23:17:11.000Z,99236
2019-04-22T23:18:12.000Z,99239
2019-04-22T23:19:26.000Z,99237
2019-04-22T23:21:11.000Z,99238
2019-04-22T23:24:26.000Z,99237
2019-04-22T23:25:26.000Z,99237
2019-04-22T23:27:26.000Z,99231
2019-04-22T23:28:26.000Z,99227
2019-04-22T23:30:11.000Z,99220
2019-04-22T23:31:23.000Z,99211
2019-04-22T23:32:25.000Z,99218
2019-04-22T23:33:26.000Z,99216
2019-04-22T23:34:32.000Z,99219
2019-04-22T23:36:23.000Z,99210
2019-04-22T23:38:26.000Z,99214
2019-04-22T23:43:16.000Z,99211
2019-04-22T23:46:26.000Z,99203
2019-04-22T23:48:11.000Z,99195
2019-04-22T23:49:26.000Z,99189
2019-04-22T23:50:26.000Z,99189
2019-04-22T23:51:26.000Z,99188
2019-04-22T23:53:26.000Z,99187
2019-04-22T23:55:26.000Z,99180
2019-04-22T23:56:26.000Z,99181
2019-04-22T23:58:26.000Z,99185
